Ellis, Indiana
Current Conditions -  °F | °C
As of 11:55 PM on Saturday 22 Nov 2014 (Local Time) from KRSV Reporting Station
Light Rain Light Rain  
Wind Chill: 52°   Ceiling: 6000
Heat Index: 52°   Visibility: 10mi
Dew Point: 41°   Wind: 7mph
Humidity: 65%   Direction: 170°S
Pressure: 29.98"   Gusts: NA
Location:  39.0631°N, 87.2571°W
Report Text: KRSV 230455Z AUTO 17006KT 10SM -RA SCT041 SCT049 OVC060 11/05 A2998 RMK AO2 T01110048
Loading
Personal Weather Stations






























Interactive Weather Map New forecast layout! Learn more

10-Day Weather Forecast

Advertisements
Track Severe Weather on mobile